Time;durP1;ratioP1;P1;durP2;ratioP2;P2;SDS_P1;SDS_P2;PMS_P1;PMS_P2;Temp;Humidity;BMP_temperature;BMP_pressure;BME280_temperature;BME280_humidity;BME280_pressure;Samples;Min_cycle;Max_cycle;Signal;HPM_P1;HPM_P2
2023/03/21 00:02:12;;;;;;;7.97;7.47;;;8.60;99.90;;;;;;5033121;28;20196;-47
2023/03/21 00:04:39;;;;;;;4.43;4.17;;;8.50;99.90;;;;;;5033250;28;20288;-48
2023/03/21 00:07:08;;;;;;;5.43;5.03;;;8.50;99.90;;;;;;5027807;28;20261;-46
2023/03/21 00:09:35;;;;;;;4.87;4.47;;;8.40;99.90;;;;;;5025304;28;20567;-48
2023/03/21 00:12:06;;;;;;;4.83;4.53;;;8.40;99.90;;;;;;5028653;28;20224;-48
2023/03/21 00:14:33;;;;;;;4.33;4.03;;;8.40;99.90;;;;;;5028884;28;20216;-48
2023/03/21 00:17:00;;;;;;;4.23;3.93;;;8.30;99.90;;;;;;5029170;28;20234;-49
2023/03/21 00:19:27;;;;;;;4.30;4.00;;;8.30;99.90;;;;;;5033152;28;20258;-48
2023/03/21 00:21:55;;;;;;;4.07;3.77;;;8.20;99.90;;;;;;5030572;28;20209;-48
2023/03/21 00:24:24;;;;;;;5.33;4.93;;;8.10;99.90;;;;;;5027064;28;20257;-48
2023/03/21 00:26:51;;;;;;;5.93;5.43;;;8.10;99.90;;;;;;5032354;28;20198;-48
2023/03/21 00:29:18;;;;;;;4.63;4.23;;;8.10;99.90;;;;;;5032685;28;20200;-49
2023/03/21 00:31:45;;;;;;;5.20;4.70;;;8.00;99.90;;;;;;5032776;28;20202;-47
2023/03/21 00:34:12;;;;;;;6.17;5.17;;;8.00;99.90;;;;;;5032745;28;20597;-49
2023/03/21 00:36:39;;;;;;;8.53;4.70;;;8.10;99.90;;;;;;5031931;28;20262;-48
2023/03/21 00:39:07;;;;;;;4.87;3.87;;;8.10;99.90;;;;;;5031863;28;20728;-49
2023/03/21 00:41:35;;;;;;;4.40;4.00;;;8.10;99.90;;;;;;5032167;28;20245;-48
2023/03/21 00:44:02;;;;;;;5.63;4.87;;;8.10;99.90;;;;;;5023901;28;20627;-48
2023/03/21 00:46:29;;;;;;;6.97;5.20;;;8.10;99.90;;;;;;5023791;28;20255;-47
2023/03/21 00:48:56;;;;;;;4.87;4.50;;;8.00;99.90;;;;;;5025114;28;20204;-47
2023/03/21 00:51:25;;;;;;;4.30;3.90;;;8.10;99.90;;;;;;5037588;28;20246;-48
2023/03/21 00:53:54;;;;;;;4.87;4.40;;;8.00;99.90;;;;;;5032026;28;20279;-49
2023/03/21 00:56:22;;;;;;;4.67;4.37;;;8.00;99.90;;;;;;5032069;28;20569;-46
2023/03/21 00:58:51;;;;;;;4.33;4.10;;;7.90;99.90;;;;;;5027395;28;20209;-48
2023/03/21 01:01:18;;;;;;;5.30;4.77;;;7.90;99.90;;;;;;5032216;28;20624;-48
2023/03/21 01:03:46;;;;;;;4.83;4.50;;;7.90;99.90;;;;;;5023019;28;20201;-49
2023/03/21 01:06:18;;;;;;;5.10;4.70;;;7.80;99.90;;;;;;5031986;28;20212;-47
2023/03/21 01:08:46;;;;;;;6.07;4.77;;;7.80;99.90;;;;;;5032102;28;20215;-49
2023/03/21 01:11:16;;;;;;;5.30;4.80;;;7.80;99.90;;;;;;5032217;28;20634;-48
2023/03/21 01:13:43;;;;;;;4.57;4.27;;;7.80;99.90;;;;;;5023163;28;20234;-47
2023/03/21 01:16:12;;;;;;;6.03;5.40;;;7.80;99.90;;;;;;5028818;28;20200;-48
2023/03/21 01:18:40;;;;;;;5.87;4.80;;;7.80;99.90;;;;;;5031693;28;20204;-48
2023/03/21 01:21:11;;;;;;;5.73;5.33;;;7.80;99.90;;;;;;5031879;28;20228;-47
2023/03/21 01:23:39;;;;;;;5.47;5.07;;;7.80;99.90;;;;;;5031671;28;20250;-47
2023/03/21 01:26:07;;;;;;;5.30;4.90;;;7.80;99.90;;;;;;5031830;28;20216;-48
2023/03/21 01:28:36;;;;;;;5.50;5.03;;;7.70;99.90;;;;;;5025699;28;20258;-49
2023/03/21 01:31:04;;;;;;;5.90;5.23;;;7.70;99.90;;;;;;5031067;28;20211;-49
2023/03/21 01:33:34;;;;;;;5.93;5.43;;;7.60;99.90;;;;;;5031244;28;20235;-52
2023/03/21 01:36:01;;;;;;;5.70;5.23;;;7.60;99.90;;;;;;5031585;28;20224;-49
2023/03/21 01:38:28;;;;;;;5.23;4.80;;;7.60;99.90;;;;;;5031836;28;20254;-47
2023/03/21 01:40:55;;;;;;;5.47;4.97;;;7.60;99.90;;;;;;5021333;28;20577;-48
2023/03/21 01:43:25;;;;;;;7.90;5.00;;;7.50;99.90;;;;;;5030888;28;20204;-47
2023/03/21 01:46:21;;;;;;;6.60;5.23;;;7.50;99.90;;;;;;5020532;28;20231;-48
2023/03/21 01:48:53;;;;;;;6.83;5.50;;;7.50;99.90;;;;;;5031346;28;20244;-48
2023/03/21 01:51:21;;;;;;;5.33;4.90;;;7.50;99.90;;;;;;5030894;28;20211;-47
2023/03/21 01:53:49;;;;;;;7.00;5.07;;;7.50;99.90;;;;;;5022152;28;20725;-48
2023/03/21 01:56:22;;;;;;;6.03;5.43;;;7.50;99.90;;;;;;5031377;28;20208;-47
2023/03/21 01:58:51;;;;;;;6.07;5.57;;;7.60;99.90;;;;;;5027317;28;20203;-48
2023/03/21 02:01:21;;;;;;;5.90;5.40;;;7.60;99.90;;;;;;5029404;28;20697;-48
2023/03/21 02:03:51;;;;;;;5.10;4.80;;;7.60;99.90;;;;;;5035323;28;20235;-48
2023/03/21 02:06:30;;;;;;;5.47;5.07;;;7.60;99.90;;;;;;5034867;28;20211;-47
2023/03/21 02:09:03;;;;;;;5.80;5.20;;;7.70;99.90;;;;;;5015705;28;20757;-48
2023/03/21 02:11:31;;;;;;;5.27;4.97;;;7.70;99.90;;;;;;5015786;28;20635;-48
2023/03/21 02:13:58;;;;;;;6.40;5.87;;;7.70;99.90;;;;;;5026429;28;20689;-48
2023/03/21 02:16:34;;;;;;;7.97;6.83;;;7.70;99.90;;;;;;5030125;28;20729;-48
2023/03/21 02:19:19;;;;;;;5.23;4.50;;;7.70;99.90;;;;;;5031032;28;20237;-48
2023/03/21 02:22:16;;;;;;;5.20;4.70;;;7.70;99.90;;;;;;5033440;28;20293;-48
2023/03/21 02:25:17;;;;;;;6.20;5.80;;;7.70;99.90;;;;;;5034056;28;20259;-48
2023/03/21 02:27:48;;;;;;;6.63;6.23;;;7.70;99.90;;;;;;5030972;28;20660;-48
2023/03/21 02:30:44;;;;;;;6.73;5.60;;;7.60;99.90;;;;;;5027559;28;20729;-48
2023/03/21 02:33:41;;;;;;;6.60;5.33;;;7.60;99.90;;;;;;5028512;28;20226;-49
2023/03/21 02:36:30;;;;;;;5.37;4.87;;;7.60;99.90;;;;;;5028021;28;20258;-47
2023/03/21 02:39:08;;;;;;;5.20;4.83;;;7.60;99.90;;;;;;5034777;28;20212;-48
2023/03/21 02:41:47;;;;;;;5.63;5.13;;;7.60;99.90;;;;;;5034951;28;20295;-46
2023/03/21 02:44:20;;;;;;;5.33;4.83;;;7.50;99.90;;;;;;5026416;28;20231;-48
2023/03/21 02:46:54;;;;;;;5.50;4.90;;;7.50;99.90;;;;;;5032237;28;20251;-49
2023/03/21 02:49:26;;;;;;;5.83;4.90;;;7.40;99.90;;;;;;5027159;28;21102;-47
2023/03/21 02:51:55;;;;;;;5.63;5.13;;;7.50;99.90;;;;;;5034028;28;20199;-47
2023/03/21 02:54:25;;;;;;;5.63;5.13;;;7.50;99.90;;;;;;5033529;28;20223;-49
2023/03/21 02:56:55;;;;;;;6.13;5.20;;;7.50;99.90;;;;;;5025581;28;20236;-47
2023/03/21 02:59:25;;;;;;;4.57;4.27;;;7.50;99.90;;;;;;5024533;28;20205;-47
2023/03/21 03:01:53;;;;;;;5.20;4.73;;;7.40;99.90;;;;;;5029696;28;20290;-48
2023/03/21 03:04:22;;;;;;;4.57;4.27;;;7.40;99.90;;;;;;5029205;28;20211;-48
2023/03/21 03:07:06;;;;;;;5.43;5.03;;;7.40;99.90;;;;;;5024423;28;20209;-48
2023/03/21 03:09:46;;;;;;;5.80;5.20;;;7.40;99.90;;;;;;5030152;28;20231;-49
2023/03/21 03:12:23;;;;;;;5.23;4.70;;;7.30;99.90;;;;;;5034200;28;20612;-49
2023/03/21 03:14:56;;;;;;;5.47;4.97;;;7.40;99.90;;;;;;5030359;28;20225;-47
2023/03/21 03:17:39;;;;;;;5.50;5.03;;;7.40;99.90;;;;;;5027463;28;20213;-48
2023/03/21 03:20:19;;;;;;;4.90;4.60;;;7.40;99.90;;;;;;5025182;28;20576;-47
2023/03/21 03:23:01;;;;;;;5.03;4.73;;;7.30;99.90;;;;;;5033871;28;20200;-47
2023/03/21 03:25:36;;;;;;;4.40;4.00;;;7.30;99.90;;;;;;5033855;28;20282;-48
2023/03/21 03:28:04;;;;;;;4.57;4.27;;;7.30;99.90;;;;;;5033902;28;20297;-48
2023/03/21 03:30:32;;;;;;;3.60;3.40;;;7.20;99.90;;;;;;5025354;28;20206;-50
2023/03/21 03:33:05;;;;;;;4.40;4.00;;;7.20;99.90;;;;;;5024290;28;20298;-47
2023/03/21 03:35:32;;;;;;;3.73;3.50;;;7.30;99.90;;;;;;5033282;28;20244;-48
2023/03/21 03:38:05;;;;;;;5.20;4.70;;;7.20;99.90;;;;;;5033998;28;20212;-47
2023/03/21 03:40:40;;;;;;;5.27;4.80;;;7.20;99.90;;;;;;5032681;28;20203;-47
2023/03/21 03:43:11;;;;;;;4.80;4.47;;;7.20;99.90;;;;;;5013966;28;20671;-48
2023/03/21 03:45:44;;;;;;;4.70;4.30;;;7.20;99.90;;;;;;5023942;28;20725;-48
2023/03/21 03:48:19;;;;;;;4.47;4.10;;;7.20;99.90;;;;;;5033350;28;20204;-47
2023/03/21 03:50:51;;;;;;;4.10;3.80;;;7.30;99.90;;;;;;5032232;28;20277;-47
2023/03/21 03:53:23;;;;;;;4.33;4.03;;;7.20;99.90;;;;;;5028053;28;20306;-48
2023/03/21 03:55:54;;;;;;;3.40;3.10;;;7.20;99.90;;;;;;5027571;28;20232;-49
2023/03/21 03:58:22;;;;;;;3.93;3.63;;;7.20;99.90;;;;;;5025497;28;20212;-48
2023/03/21 04:00:50;;;;;;;5.80;3.97;;;7.20;99.90;;;;;;5032772;28;20739;-48
2023/03/21 04:03:18;;;;;;;4.13;3.83;;;7.20;99.90;;;;;;5029553;28;20256;-48
2023/03/21 04:05:45;;;;;;;4.57;3.57;;;7.10;99.90;;;;;;5027012;28;20222;-48
2023/03/21 04:08:14;;;;;;;3.95;3.75;;;7.10;99.90;;;;;;5029940;28;20449;-49
2023/03/21 04:10:45;;;;;;;4.87;4.47;;;7.10;99.90;;;;;;5023571;28;20299;-49
2023/03/21 04:13:14;;;;;;;4.00;3.80;;;7.10;99.90;;;;;;5025767;28;20666;-48
2023/03/21 04:15:41;;;;;;;6.93;6.43;;;7.10;99.90;;;;;;5029626;28;20235;-49
2023/03/21 04:18:08;;;;;;;7.00;6.40;;;7.10;99.90;;;;;;5026390;28;20199;-47
2023/03/21 04:20:36;;;;;;;11.87;10.83;;;7.10;99.90;;;;;;5031424;28;20204;-48
2023/03/21 04:23:03;;;;;;;5.60;5.10;;;7.10;99.90;;;;;;5031224;28;20207;-47
2023/03/21 04:25:30;;;;;;;4.27;4.03;;;7.20;99.90;;;;;;5023462;28;20219;-47
2023/03/21 04:28:00;;;;;;;4.30;4.00;;;7.10;99.90;;;;;;5030103;28;20208;-48
2023/03/21 04:30:28;;;;;;;4.90;4.57;;;7.10;99.90;;;;;;5032938;28;20204;-47
2023/03/21 04:32:59;;;;;;;5.23;4.90;;;7.10;99.90;;;;;;5031847;28;20230;-48
2023/03/21 04:35:27;;;;;;;4.30;4.07;;;7.10;99.90;;;;;;5029813;28;20809;-47
2023/03/21 04:37:57;;;;;;;7.33;4.70;;;7.00;99.90;;;;;;5032224;28;20250;-47
2023/03/21 04:40:24;;;;;;;5.30;4.83;;;7.00;99.90;;;;;;5032714;28;20207;-48
2023/03/21 04:42:51;;;;;;;6.33;4.90;;;7.00;99.90;;;;;;5024280;28;20208;-47
2023/03/21 04:45:18;;;;;;;6.00;4.90;;;7.00;99.90;;;;;;5030492;28;20224;-48
2023/03/21 04:47:47;;;;;;;4.63;4.33;;;6.90;99.90;;;;;;5032207;28;20204;-47
2023/03/21 04:50:14;;;;;;;5.13;3.97;;;6.90;99.90;;;;;;5028374;28;20214;-47
2023/03/21 04:52:41;;;;;;;4.57;4.27;;;6.90;99.90;;;;;;5031397;28;20272;-47
2023/03/21 04:55:10;;;;;;;5.63;3.87;;;6.80;99.90;;;;;;5032074;28;20280;-48
2023/03/21 04:57:37;;;;;;;4.10;3.90;;;6.80;99.90;;;;;;5021229;28;20201;-48
2023/03/21 05:00:09;;;;;;;3.67;3.47;;;6.80;99.90;;;;;;5030349;28;20295;-48
2023/03/21 05:02:36;;;;;;;4.87;4.37;;;6.80;99.90;;;;;;5023024;28;20254;-47
2023/03/21 05:05:05;;;;;;;4.50;4.20;;;6.80;99.90;;;;;;5030508;28;20215;-48
2023/03/21 05:07:32;;;;;;;4.90;4.27;;;6.80;99.90;;;;;;5031124;28;20198;-47
2023/03/21 05:09:59;;;;;;;6.53;5.83;;;6.70;99.90;;;;;;5032254;28;20208;-48
2023/03/21 05:12:26;;;;;;;6.90;5.60;;;6.70;99.90;;;;;;5025442;28;20678;-47
2023/03/21 05:14:53;;;;;;;6.97;5.60;;;6.70;99.90;;;;;;5030362;28;20700;-51
2023/03/21 05:17:23;;;;;;;7.33;6.07;;;6.70;99.90;;;;;;5018100;28;20262;-46
2023/03/21 05:19:51;;;;;;;6.30;5.77;;;6.70;99.90;;;;;;5030624;28;20251;-46
2023/03/21 05:22:20;;;;;;;6.33;5.83;;;6.70;99.90;;;;;;5031863;28;20212;-46
2023/03/21 05:24:49;;;;;;;6.60;4.77;;;6.70;99.90;;;;;;5029526;28;20284;-47
2023/03/21 05:27:33;;;;;;;5.13;4.73;;;6.70;99.90;;;;;;5031498;28;20238;-48
2023/03/21 05:30:02;;;;;;;7.33;5.67;;;6.70;99.90;;;;;;5012151;28;20207;-48
2023/03/21 05:32:29;;;;;;;4.93;4.37;;;6.80;99.90;;;;;;5012009;28;20744;-48
2023/03/21 05:34:56;;;;;;;5.03;4.73;;;6.80;99.90;;;;;;5028762;28;20293;-46
2023/03/21 05:37:25;;;;;;;5.37;4.80;;;6.80;99.90;;;;;;5020013;28;20209;-49
2023/03/21 05:39:52;;;;;;;7.67;5.77;;;6.80;99.90;;;;;;5027085;28;20203;-47
2023/03/21 05:42:19;;;;;;;6.57;5.63;;;6.80;99.90;;;;;;5021849;28;20207;-47
2023/03/21 05:44:46;;;;;;;5.47;4.97;;;6.80;99.90;;;;;;5027429;28;20215;-47
2023/03/21 05:47:14;;;;;;;6.93;6.10;;;6.80;99.90;;;;;;5017745;28;20198;-48
2023/03/21 05:49:41;;;;;;;5.77;5.20;;;6.80;99.90;;;;;;5029172;28;20258;-47
2023/03/21 05:52:09;;;;;;;7.77;4.97;;;6.90;99.90;;;;;;5031647;28;20208;-47
2023/03/21 05:54:37;;;;;;;5.63;5.13;;;6.90;99.90;;;;;;5031390;28;20593;-49
2023/03/21 05:57:05;;;;;;;7.17;5.90;;;7.00;99.90;;;;;;5031827;28;20202;-46
2023/03/21 05:59:32;;;;;;;6.23;5.73;;;7.00;99.90;;;;;;5029998;28;20664;-48
2023/03/21 06:01:59;;;;;;;4.90;4.50;;;7.10;99.90;;;;;;5026198;28;20690;-47
2023/03/21 06:04:26;;;;;;;5.20;4.63;;;7.10;99.90;;;;;;5028105;28;20222;-47
2023/03/21 06:06:53;;;;;;;5.07;4.67;;;7.10;99.90;;;;;;5026520;28;20208;-48
2023/03/21 06:09:21;;;;;;;5.97;5.20;;;7.20;99.90;;;;;;5022347;28;20246;-50
2023/03/21 06:11:51;;;;;;;4.93;4.07;;;7.20;99.90;;;;;;5031672;28;20204;-48
2023/03/21 06:14:19;;;;;;;6.17;4.23;;;7.40;99.90;;;;;;5027901;28;20274;-47
2023/03/21 06:16:46;;;;;;;3.83;3.63;;;7.40;99.90;;;;;;5031099;28;20246;-48
2023/03/21 06:19:13;;;;;;;5.80;4.07;;;7.50;99.90;;;;;;5031392;28;20686;-47
2023/03/21 06:21:40;;;;;;;4.43;4.03;;;7.60;99.90;;;;;;5029081;28;20669;-49
2023/03/21 06:24:07;;;;;;;3.97;3.43;;;7.80;99.90;;;;;;5031526;28;20258;-48
2023/03/21 06:26:34;;;;;;;7.47;5.17;;;8.00;99.90;;;;;;5017862;28;20201;-48
2023/03/21 06:29:03;;;;;;;8.77;6.47;;;8.10;99.90;;;;;;5021181;28;20200;-49
2023/03/21 06:31:30;;;;;;;7.17;5.97;;;8.30;99.90;;;;;;5022227;28;20237;-48
2023/03/21 06:33:59;;;;;;;4.70;3.87;;;8.50;99.90;;;;;;5020748;28;20224;-48
2023/03/21 06:36:26;;;;;;;5.23;4.27;;;8.60;99.90;;;;;;5023501;28;20559;-46
2023/03/21 06:38:53;;;;;;;4.33;4.10;;;8.60;99.90;;;;;;5027613;28;20555;-47
2023/03/21 06:41:19;;;;;;;5.87;5.20;;;8.70;99.90;;;;;;5025910;28;20684;-47
2023/03/21 06:43:47;;;;;;;6.87;5.93;;;8.70;99.90;;;;;;5029985;28;20229;-48
2023/03/21 06:46:15;;;;;;;6.73;5.37;;;8.70;99.90;;;;;;5030861;28;20205;-47
2023/03/21 06:48:44;;;;;;;5.00;4.60;;;8.70;99.90;;;;;;5031819;28;20287;-48
2023/03/21 06:51:13;;;;;;;6.47;5.67;;;8.80;99.90;;;;;;5028861;28;20226;-48
2023/03/21 06:53:42;;;;;;;7.57;4.30;;;8.80;99.90;;;;;;5031928;28;20219;-47
2023/03/21 06:56:10;;;;;;;3.50;3.30;;;8.80;99.90;;;;;;5034607;28;20208;-48
2023/03/21 06:58:37;;;;;;;3.50;3.30;;;8.80;99.90;;;;;;5034594;28;20207;-47
2023/03/21 07:01:05;;;;;;;4.10;3.43;;;8.90;99.90;;;;;;5031838;28;20195;-47
2023/03/21 07:03:34;;;;;;;3.63;3.33;;;9.10;99.90;;;;;;5028924;28;20197;-47
2023/03/21 07:06:06;;;;;;;4.30;3.93;;;9.20;99.90;;;;;;5029652;28;20217;-48
2023/03/21 07:08:32;;;;;;;5.43;4.97;;;9.30;99.90;;;;;;5030449;28;20261;-50
2023/03/21 07:10:59;;;;;;;5.23;4.77;;;9.30;99.90;;;;;;5029755;28;20690;-48
2023/03/21 07:13:26;;;;;;;5.60;5.13;;;9.40;99.90;;;;;;5028472;28;20255;-47
2023/03/21 07:15:54;;;;;;;7.20;6.50;;;9.60;99.90;;;;;;5028978;28;20224;-47
2023/03/21 07:18:21;;;;;;;6.70;6.03;;;9.50;99.90;;;;;;5031123;28;20210;-47
2023/03/21 07:20:51;;;;;;;6.47;6.03;;;9.50;99.90;;;;;;5031351;28;20266;-48
2023/03/21 07:23:19;;;;;;;6.27;5.77;;;9.70;99.90;;;;;;5034057;28;20201;-47
2023/03/21 07:25:47;;;;;;;5.97;5.57;;;10.10;99.90;;;;;;5021510;28;20224;-48
2023/03/21 07:28:15;;;;;;;6.40;5.80;;;10.40;99.90;;;;;;5033914;28;20618;-48
2023/03/21 07:30:42;;;;;;;6.07;5.33;;;10.70;99.90;;;;;;5034051;28;20733;-48
2023/03/21 07:33:09;;;;;;;6.23;5.77;;;11.00;99.90;;;;;;5034021;28;20263;-46
2023/03/21 07:35:36;;;;;;;5.60;5.13;;;11.10;99.90;;;;;;5024864;28;20216;-48
2023/03/21 07:38:05;;;;;;;6.17;5.00;;;11.20;99.90;;;;;;5033641;28;20291;-47
2023/03/21 07:40:32;;;;;;;5.57;5.17;;;11.30;99.90;;;;;;5034241;28;20287;-48
2023/03/21 07:43:00;;;;;;;8.97;5.50;;;11.30;99.90;;;;;;5034005;28;20255;-48
2023/03/21 07:45:28;;;;;;;5.50;5.00;;;11.20;99.90;;;;;;5033769;28;20615;-49
2023/03/21 07:47:58;;;;;;;5.07;4.73;;;11.40;99.90;;;;;;5033245;28;20750;-47
2023/03/21 07:50:25;;;;;;;5.37;4.70;;;12.00;99.90;;;;;;5024737;28;20675;-47
2023/03/21 07:52:55;;;;;;;3.80;3.60;;;12.40;99.90;;;;;;5033752;28;20201;-48
2023/03/21 07:55:23;;;;;;;3.40;3.17;;;13.10;99.90;;;;;;5025154;28;20260;-48
2023/03/21 07:57:51;;;;;;;2.57;2.43;;;13.70;99.90;;;;;;5033557;28;20199;-47
2023/03/21 08:00:21;;;;;;;6.30;3.07;;;14.30;99.90;;;;;;5033430;28;20240;-48
2023/03/21 08:02:53;;;;;;;2.50;2.40;;;14.80;99.90;;;;;;5032618;28;20202;-48
2023/03/21 08:05:21;;;;;;;2.50;2.40;;;15.30;99.90;;;;;;5027241;28;20595;-49
2023/03/21 08:07:48;;;;;;;3.37;3.00;;;16.10;99.90;;;;;;5033069;28;20734;-48
2023/03/21 08:10:15;;;;;;;2.43;2.17;;;16.80;99.90;;;;;;5034240;28;20549;-48
2023/03/21 08:12:44;;;;;;;3.10;2.90;;;17.40;99.90;;;;;;5033226;28;20667;-48
2023/03/21 08:15:12;;;;;;;3.77;3.10;;;17.90;99.90;;;;;;5032858;28;20222;-47
2023/03/21 08:17:39;;;;;;;3.63;3.33;;;17.80;99.90;;;;;;5029317;28;20641;-48
2023/03/21 08:20:08;;;;;;;3.17;2.90;;;18.10;99.90;;;;;;5029431;28;20206;-48
2023/03/21 08:22:36;;;;;;;3.63;2.83;;;18.60;99.90;;;;;;5031499;28;20205;-48
2023/03/21 08:25:04;;;;;;;6.53;2.40;;;19.20;99.90;;;;;;5020376;28;20272;-48
2023/03/21 08:27:32;;;;;;;3.70;2.57;;;19.50;99.90;;;;;;5032781;28;20203;-48
2023/03/21 08:30:01;;;;;;;3.17;2.97;;;19.80;99.90;;;;;;5031597;28;20221;-47
2023/03/21 08:32:29;;;;;;;2.07;2.07;;;19.80;99.90;;;;;;5031616;28;20198;-47
2023/03/21 08:34:59;;;;;;;2.93;2.73;;;20.50;99.90;;;;;;5032557;28;20226;-48
2023/03/21 08:37:27;;;;;;;2.10;2.10;;;20.10;99.90;;;;;;5028355;28;20195;-49
2023/03/21 08:39:54;;;;;;;2.40;2.23;;;20.60;99.90;;;;;;5023974;28;20224;-48
2023/03/21 08:42:22;;;;;;;2.97;2.13;;;20.40;99.90;;;;;;5032639;28;20206;-48
2023/03/21 08:44:49;;;;;;;1.53;1.53;;;20.40;99.90;;;;;;5032052;28;20641;-48
2023/03/21 08:47:17;;;;;;;2.40;1.33;;;20.30;99.90;;;;;;5032189;28;20684;-48
2023/03/21 08:49:45;;;;;;;1.70;1.70;;;20.50;99.90;;;;;;5032398;28;20330;-49
2023/03/21 08:52:13;;;;;;;1.92;1.83;;;20.60;99.90;;;;;;5030788;28;20445;-50
2023/03/21 08:54:40;;;;;;;1.87;1.77;;;21.30;99.90;;;;;;5031700;28;20237;-47
2023/03/21 08:57:09;;;;;;;1.67;1.43;;;21.70;99.90;;;;;;5031324;28;20245;-49
2023/03/21 08:59:37;;;;;;;1.40;1.40;;;21.10;99.90;;;;;;5032030;28;20689;-49
2023/03/21 09:02:04;;;;;;;1.63;1.57;;;20.70;99.90;;;;;;5029931;28;20591;-48
2023/03/21 09:04:32;;;;;;;2.37;1.57;;;19.70;99.90;;;;;;5023695;28;20712;-48
2023/03/21 09:07:03;;;;;;;2.43;2.23;;;19.10;99.90;;;;;;5012164;28;20277;-49
2023/03/21 09:09:30;;;;;;;2.20;2.00;;;18.50;99.90;;;;;;5012266;28;20226;-48
2023/03/21 09:11:58;;;;;;;1.70;1.60;;;17.90;99.90;;;;;;5021244;28;20217;-48
2023/03/21 09:14:25;;;;;;;2.10;2.00;;;17.80;99.90;;;;;;5028559;28;20222;-49
2023/03/21 09:16:52;;;;;;;2.53;2.27;;;17.80;99.90;;;;;;5031448;28;20217;-48
2023/03/21 09:19:19;;;;;;;2.10;1.57;;;17.70;99.90;;;;;;5024655;28;20199;-47
2023/03/21 09:21:48;;;;;;;3.40;2.10;;;17.50;99.90;;;;;;5025643;28;20205;-48
2023/03/21 09:24:16;;;;;;;1.97;1.80;;;16.90;99.90;;;;;;5023189;28;20248;-47
2023/03/21 09:26:44;;;;;;;1.43;1.43;;;16.80;99.90;;;;;;5026052;28;20198;-48
2023/03/21 09:29:11;;;;;;;1.43;1.43;;;16.70;99.90;;;;;;5023265;28;20494;-47
2023/03/21 09:31:38;;;;;;;1.60;1.50;;;16.90;99.90;;;;;;5024441;28;20687;-48
2023/03/21 09:34:06;;;;;;;2.13;1.90;;;17.10;99.90;;;;;;5025154;28;20774;-48
2023/03/21 09:36:35;;;;;;;3.43;1.67;;;17.20;99.90;;;;;;5024024;28;20218;-47
2023/03/21 09:39:03;;;;;;;3.90;1.73;;;16.80;99.90;;;;;;5026340;28;20202;-49
2023/03/21 09:41:45;;;;;;;2.00;1.90;;;16.90;99.90;;;;;;5026774;28;20222;-47
2023/03/21 09:44:27;;;;;;;1.70;1.60;;;16.90;99.90;;;;;;5024499;28;22100;-48
2023/03/21 09:47:01;;;;;;;2.63;1.93;;;16.80;99.90;;;;;;5023776;28;20195;-48
2023/03/21 09:49:33;;;;;;;2.53;2.33;;;16.80;99.90;;;;;;5025569;28;20302;-48
2023/03/21 09:52:04;;;;;;;1.50;1.37;;;16.70;99.90;;;;;;5027204;28;20317;-49
2023/03/21 09:54:37;;;;;;;1.40;1.40;;;16.80;99.90;;;;;;5026359;28;20238;-48
2023/03/21 09:57:13;;;;;;;2.20;1.73;;;16.70;99.90;;;;;;5024567;28;20206;-49
2023/03/21 09:59:42;;;;;;;4.37;1.80;;;16.80;99.90;;;;;;5027794;28;20202;-48
2023/03/21 10:02:30;;;;;;;1.90;1.80;;;16.60;99.90;;;;;;5024444;28;20277;-48
2023/03/21 10:04:57;;;;;;;1.90;1.80;;;16.60;99.90;;;;;;5024287;28;20309;-48
2023/03/21 10:07:27;;;;;;;1.60;1.60;;;16.70;99.90;;;;;;5023426;28;20202;-48
2023/03/21 10:09:57;;;;;;;1.80;1.50;;;17.00;99.90;;;;;;5024804;28;20632;-47
2023/03/21 10:12:29;;;;;;;1.60;1.50;;;17.20;99.90;;;;;;5024825;28;20206;-48
2023/03/21 10:14:59;;;;;;;1.80;1.67;;;17.20;99.90;;;;;;5025091;28;20581;-48
2023/03/21 10:17:32;;;;;;;1.33;1.33;;;17.30;99.90;;;;;;5024060;28;20205;-48
2023/03/21 10:20:12;;;;;;;1.80;1.70;;;17.20;99.90;;;;;;5024386;28;20230;-48
2023/03/21 10:22:39;;;;;;;1.87;1.77;;;17.10;99.90;;;;;;5023273;28;20429;-48
2023/03/21 10:25:11;;;;;;;4.30;2.07;;;17.20;99.90;;;;;;5026476;28;20221;-48
2023/03/21 10:27:38;;;;;;;4.70;4.50;;;17.40;99.90;;;;;;5027240;28;20252;-48
2023/03/21 10:30:09;;;;;;;4.93;4.53;;;17.80;99.90;;;;;;5028173;28;20210;-47
2023/03/21 10:32:36;;;;;;;6.13;5.63;;;18.10;99.90;;;;;;5027586;28;20320;-49
2023/03/21 10:35:04;;;;;;;5.47;5.07;;;18.50;99.90;;;;;;5027559;28;20279;-48
2023/03/21 10:37:32;;;;;;;6.43;5.93;;;18.50;99.90;;;;;;5027553;28;20237;-49
2023/03/21 10:39:59;;;;;;;5.77;5.47;;;18.30;99.90;;;;;;5027374;28;20756;-49
2023/03/21 10:42:31;;;;;;;5.47;5.23;;;17.80;99.90;;;;;;5027559;28;20439;-47
2023/03/21 10:44:59;;;;;;;5.43;5.23;;;17.30;99.90;;;;;;5027590;28;20224;-48
2023/03/21 10:47:28;;;;;;;6.27;5.77;;;17.40;99.90;;;;;;5026843;28;20206;-49
2023/03/21 10:49:55;;;;;;;6.07;5.57;;;17.70;99.90;;;;;;5028584;28;20205;-48
2023/03/21 10:52:26;;;;;;;6.27;5.77;;;18.00;99.90;;;;;;5032977;28;20209;-49
2023/03/21 10:55:07;;;;;;;5.37;5.00;;;18.10;99.90;;;;;;5032668;28;20781;-48
2023/03/21 10:57:36;;;;;;;6.47;6.00;;;18.10;99.90;;;;;;5031665;28;20202;-48
2023/03/21 11:00:15;;;;;;;5.93;5.40;;;17.70;99.90;;;;;;5031244;28;20210;-48
2023/03/21 11:02:42;;;;;;;5.07;4.83;;;17.50;99.90;;;;;;5029186;28;20580;-49
2023/03/21 11:05:21;;;;;;;4.97;4.77;;;17.60;99.90;;;;;;5028247;28;20250;-49
2023/03/21 11:07:48;;;;;;;5.57;5.07;;;17.20;99.90;;;;;;5031351;28;20209;-47
2023/03/21 11:10:26;;;;;;;5.70;5.33;;;17.30;99.90;;;;;;5027112;28;20206;-47
2023/03/21 11:13:00;;;;;;;5.97;5.57;;;17.40;99.90;;;;;;5027114;28;20206;-47
2023/03/21 11:15:30;;;;;;;6.60;6.00;;;17.40;99.90;;;;;;5026626;28;20226;-47
2023/03/21 11:17:59;;;;;;;6.63;6.23;;;17.40;99.90;;;;;;5026513;28;20211;-48
2023/03/21 11:20:29;;;;;;;6.80;6.33;;;17.50;99.90;;;;;;5026351;28;20572;-47
2023/03/21 11:22:56;;;;;;;7.37;6.77;;;17.20;99.90;;;;;;5033585;28;20260;-48
2023/03/21 11:25:32;;;;;;;7.47;6.97;;;17.00;99.90;;;;;;5030430;28;20219;-47
2023/03/21 11:28:06;;;;;;;8.27;7.63;;;16.50;99.90;;;;;;5031605;28;20277;-48
2023/03/21 11:30:34;;;;;;;6.97;6.50;;;16.50;99.90;;;;;;5031924;28;20202;-47
2023/03/21 11:33:03;;;;;;;6.73;6.33;;;16.60;99.90;;;;;;5028149;28;20560;-48
2023/03/21 11:35:34;;;;;;;6.83;6.33;;;16.60;99.90;;;;;;5027848;28;20317;-48
2023/03/21 11:38:02;;;;;;;7.00;6.47;;;16.50;99.90;;;;;;5026363;28;20567;-48
2023/03/21 11:40:30;;;;;;;6.53;6.07;;;16.00;99.90;;;;;;5029452;28;20692;-48
2023/03/21 11:43:04;;;;;;;6.73;6.23;;;16.10;99.90;;;;;;5024094;28;20652;-47
2023/03/21 11:45:32;;;;;;;7.63;6.80;;;16.20;99.90;;;;;;5025944;28;20215;-48
2023/03/21 11:48:05;;;;;;;6.33;5.73;;;16.20;99.90;;;;;;5025002;28;20562;-47
2023/03/21 11:50:35;;;;;;;6.37;5.93;;;15.90;99.90;;;;;;5028580;28;20260;-48
2023/03/21 11:53:26;;;;;;;6.10;5.50;;;15.60;99.90;;;;;;5027641;28;20203;-48
2023/03/21 11:56:09;;;;;;;5.57;5.27;;;15.50;99.90;;;;;;5032466;28;20309;-47
2023/03/21 11:58:47;;;;;;;5.17;4.70;;;15.70;99.90;;;;;;5032248;28;20198;-48
2023/03/21 12:01:25;;;;;;;5.20;4.80;;;15.70;99.90;;;;;;5024582;28;20218;-47
2023/03/21 12:04:19;;;;;;;4.73;4.53;;;15.80;99.90;;;;;;5032294;28;20240;-47
2023/03/21 12:06:53;;;;;;;5.43;4.90;;;15.50;99.90;;;;;;5033066;28;20198;-48
2023/03/21 12:09:43;;;;;;;4.00;3.70;;;15.60;99.90;;;;;;5033315;28;20229;-49
2023/03/21 12:12:22;;;;;;;5.23;4.67;;;15.80;99.90;;;;;;5029109;28;20203;-47
2023/03/21 12:15:03;;;;;;;4.77;4.57;;;15.90;99.90;;;;;;5033221;28;20316;-49
2023/03/21 12:17:46;;;;;;;3.63;3.43;;;15.70;99.90;;;;;;5024007;28;20230;-46
2023/03/21 12:20:29;;;;;;;3.53;3.30;;;15.90;99.90;;;;;;5029197;28;20213;-48
2023/03/21 12:23:17;;;;;;;3.77;3.57;;;16.20;99.90;;;;;;5032860;28;20233;-48
2023/03/21 12:25:51;;;;;;;3.53;3.23;;;16.20;99.90;;;;;;5032985;28;20229;-47
2023/03/21 12:28:31;;;;;;;4.60;4.33;;;16.10;99.90;;;;;;5032655;28;20206;-49
2023/03/21 12:31:07;;;;;;;3.87;3.57;;;16.10;99.90;;;;;;5028496;28;20203;-48
2023/03/21 12:33:57;;;;;;;3.93;3.57;;;16.00;99.90;;;;;;5029492;28;20229;-49
2023/03/21 12:36:40;;;;;;;4.23;3.83;;;15.90;99.90;;;;;;5032285;28;20233;-48
2023/03/21 12:39:17;;;;;;;3.90;3.60;;;15.80;99.90;;;;;;5028292;28;20229;-49
2023/03/21 12:41:53;;;;;;;3.07;2.87;;;16.00;99.90;;;;;;5029770;28;20205;-48
2023/03/21 12:44:22;;;;;;;3.30;3.10;;;16.10;99.90;;;;;;5025561;28;20234;-48
2023/03/21 12:46:57;;;;;;;2.80;2.70;;;16.20;99.90;;;;;;5021257;28;20207;-48
2023/03/21 12:49:29;;;;;;;4.03;3.73;;;16.30;99.90;;;;;;5027397;28;20202;-48
2023/03/21 12:52:01;;;;;;;4.23;3.83;;;16.10;99.90;;;;;;5031462;28;20678;-47
2023/03/21 12:54:35;;;;;;;3.47;3.37;;;15.90;99.90;;;;;;5029926;28;20233;-48
2023/03/21 12:57:06;;;;;;;3.37;3.27;;;15.90;99.90;;;;;;5023684;28;20273;-48
2023/03/21 12:59:38;;;;;;;4.10;3.77;;;15.90;99.90;;;;;;5024159;28;20198;-48
2023/03/21 13:02:18;;;;;;;5.20;4.00;;;16.10;99.90;;;;;;5031822;28;20194;-48
2023/03/21 13:04:52;;;;;;;2.63;2.53;;;15.90;99.90;;;;;;5031352;28;20226;-46
2023/03/21 13:07:24;;;;;;;3.03;2.63;;;15.70;99.90;;;;;;5031751;28;20232;-47
2023/03/21 13:09:53;;;;;;;2.50;2.40;;;15.80;99.90;;;;;;5030024;28;20674;-47
2023/03/21 13:12:42;;;;;;;4.03;2.80;;;15.90;99.90;;;;;;5031020;28;20198;-49